createdAt,value
2018-09-28T00:00:51.159Z,12.04
2018-09-28T00:03:18.034Z,11.92
2018-09-28T00:05:44.914Z,11.95
2018-09-28T00:08:11.840Z,11.89
2018-09-28T00:10:38.698Z,11.80
2018-09-28T00:13:05.522Z,11.77
2018-09-28T00:15:32.414Z,11.75
2018-09-28T00:17:59.266Z,11.82
2018-09-28T00:20:27.146Z,11.82
2018-09-28T00:22:53.974Z,11.76
2018-09-28T00:25:20.854Z,11.33
2018-09-28T00:27:47.754Z,11.77
2018-09-28T00:30:14.678Z,10.92
2018-09-28T00:32:41.553Z,11.21
2018-09-28T00:35:08.501Z,11.41
2018-09-28T00:37:35.442Z,11.39
2018-09-28T00:40:02.298Z,11.37
2018-09-28T00:42:29.146Z,11.53
2018-09-28T00:44:55.986Z,11.53
2018-09-28T00:47:23.903Z,11.45
2018-09-28T00:49:50.833Z,11.32
2018-09-28T00:52:17.686Z,11.10
2018-09-28T00:54:44.555Z,10.84
2018-09-28T00:57:11.391Z,10.89
2018-09-28T00:59:38.269Z,10.45
2018-09-28T01:02:05.218Z,10.86
2018-09-28T01:04:32.078Z,11.05
2018-09-28T01:06:58.897Z,11.25
2018-09-28T01:09:25.785Z,11.25
2018-09-28T01:11:52.665Z,11.52
2018-09-28T01:14:19.599Z,11.42
2018-09-28T01:16:46.438Z,11.48
2018-09-28T01:19:13.302Z,11.67
2018-09-28T01:21:40.146Z,11.49
2018-09-28T01:24:07.017Z,11.37
2018-09-28T01:26:33.870Z,11.46
2018-09-28T01:29:00.699Z,11.41
2018-09-28T01:31:28.839Z,11.33
2018-09-28T01:33:55.854Z,11.29
2018-09-28T01:36:22.743Z,11.18
2018-09-28T01:38:49.682Z,11.17
2018-09-28T01:41:16.518Z,11.15
2018-09-28T01:43:43.416Z,11.15
2018-09-28T01:46:10.398Z,11.13
2018-09-28T01:48:37.418Z,11.17
2018-09-28T01:51:04.262Z,11.09
2018-09-28T01:53:31.129Z,11.15
2018-09-28T01:55:58.106Z,11.18
2018-09-28T01:58:25.037Z,11.15
2018-09-28T02:00:51.898Z,11.21
2018-09-28T02:03:18.754Z,11.22
2018-09-28T02:05:45.702Z,11.06
2018-09-28T02:08:12.654Z,10.82
2018-09-28T02:10:39.530Z,10.94
2018-09-28T02:13:06.486Z,11.18
2018-09-28T02:15:33.439Z,11.16
2018-09-28T02:18:00.390Z,11.30
2018-09-28T02:20:27.346Z,11.35
2018-09-28T02:22:54.209Z,11.29
2018-09-28T02:25:21.056Z,11.35
2018-09-28T02:27:48.027Z,11.37
2018-09-28T02:30:14.899Z,11.35
2018-09-28T02:32:41.825Z,11.41
2018-09-28T02:35:08.778Z,11.40
2018-09-28T02:37:35.646Z,11.44
2018-09-28T02:40:02.603Z,11.48
2018-09-28T02:42:29.569Z,11.52
2018-09-28T02:44:56.523Z,11.47
2018-09-28T02:47:23.415Z,11.47
2018-09-28T02:49:50.315Z,11.90
2018-09-28T02:52:17.219Z,11.72
2018-09-28T02:54:45.174Z,11.65
2018-09-28T02:57:12.084Z,11.60
2018-09-28T02:59:38.990Z,11.67
2018-09-28T03:02:05.925Z,11.58
2018-09-28T03:04:32.924Z,11.53
2018-09-28T03:06:59.859Z,11.52
2018-09-28T03:09:26.738Z,11.58
2018-09-28T03:11:53.658Z,11.64
2018-09-28T03:14:20.622Z,11.33
2018-09-28T03:16:47.579Z,11.36
2018-09-28T03:19:14.498Z,11.51
2018-09-28T03:21:41.382Z,11.49
2018-09-28T03:24:08.260Z,11.45
2018-09-28T03:26:35.197Z,11.54
2018-09-28T03:29:02.205Z,11.42
2018-09-28T03:31:29.178Z,11.38
2018-09-28T03:33:56.078Z,11.41
2018-09-28T03:36:23.038Z,11.46
2018-09-28T03:38:50.013Z,11.29
2018-09-28T03:41:16.834Z,11.28
2018-09-28T03:43:43.690Z,11.15
2018-09-28T03:46:10.558Z,11.05
2018-09-28T03:48:37.598Z,11.00
2018-09-28T03:51:04.462Z,11.07
2018-09-28T03:53:31.314Z,11.04
2018-09-28T03:55:58.170Z,10.91
2018-09-28T03:58:26.034Z,10.98
2018-09-28T04:00:52.922Z,10.92
2018-09-28T04:03:19.851Z,11.08
2018-09-28T04:05:46.858Z,11.07
2018-09-28T04:08:13.831Z,11.16
2018-09-28T04:10:40.841Z,11.14
2018-09-28T04:13:07.783Z,10.82
2018-09-28T04:15:34.639Z,10.86
2018-09-28T04:18:01.574Z,10.64
2018-09-28T04:20:28.461Z,10.50
2018-09-28T04:22:55.330Z,11.08
2018-09-28T04:25:22.257Z,10.81
2018-09-28T04:27:49.125Z,10.76
2018-09-28T04:30:16.002Z,11.02
2018-09-28T04:32:42.876Z,11.04
2018-09-28T04:35:10.817Z,11.14
2018-09-28T04:37:37.686Z,10.94
2018-09-28T04:40:04.692Z,10.49
2018-09-28T04:42:31.583Z,10.44
2018-09-28T04:44:58.434Z,11.27
2018-09-28T04:47:25.298Z,10.39
2018-09-28T04:49:52.151Z,10.24
2018-09-28T04:52:18.994Z,10.10
2018-09-28T04:54:45.861Z,9.96
2018-09-28T04:57:12.722Z,9.46
2018-09-28T04:59:39.659Z,9.18
2018-09-28T05:02:06.533Z,9.15
2018-09-28T05:04:33.392Z,9.36
2018-09-28T05:07:01.294Z,9.35
2018-09-28T05:09:28.253Z,9.38
2018-09-28T05:11:56.088Z,9.50
2018-09-28T05:14:22.938Z,9.60
2018-09-28T05:16:49.787Z,9.48
2018-09-28T05:19:17.677Z,9.68
2018-09-28T05:21:44.587Z,9.39
2018-09-28T05:24:11.486Z,9.34
2018-09-28T05:26:38.315Z,9.55
2018-09-28T05:29:05.198Z,9.27
2018-09-28T05:31:32.211Z,9.15
2018-09-28T05:33:58.906Z,9.08
2018-09-28T05:36:25.742Z,9.34
2018-09-28T05:38:52.670Z,9.11
2018-09-28T05:41:19.588Z,9.04
2018-09-28T05:43:46.499Z,8.93
2018-09-28T05:46:14.371Z,9.04
2018-09-28T05:48:41.196Z,9.10
2018-09-28T05:51:08.133Z,9.29
2018-09-28T05:53:35.110Z,9.40
2018-09-28T05:56:02.133Z,9.47
2018-09-28T05:58:35.023Z,9.51
2018-09-28T06:01:07.707Z,9.22
2018-09-28T06:03:38.266Z,9.28
2018-09-28T06:06:05.098Z,9.53
2018-09-28T06:08:31.984Z,9.72
2018-09-28T06:10:58.813Z,9.77
2018-09-28T06:13:25.694Z,9.98
2018-09-28T06:15:52.674Z,10.04
2018-09-28T06:18:19.707Z,10.19
2018-09-28T06:20:46.865Z,10.36
2018-09-28T06:23:13.723Z,10.54
2018-09-28T06:25:40.627Z,10.53
2018-09-28T06:28:07.525Z,10.82
2018-09-28T06:30:34.442Z,11.05
2018-09-28T06:33:01.275Z,11.22
2018-09-28T06:35:28.219Z,11.49
2018-09-28T06:37:55.098Z,11.52
2018-09-28T06:40:25.811Z,11.62
2018-09-28T06:42:52.807Z,11.32
2018-09-28T06:45:19.782Z,11.47
2018-09-28T06:47:46.700Z,11.84
2018-09-28T06:50:13.514Z,12.35
2018-09-28T06:52:40.398Z,12.13
2018-09-28T06:55:07.291Z,12.76
2018-09-28T06:57:34.119Z,12.26
2018-09-28T07:00:03.191Z,12.12
2018-09-28T07:02:30.066Z,12.28
2018-09-28T07:04:56.974Z,12.72
2018-09-28T07:07:23.851Z,12.87
2018-09-28T07:09:50.864Z,12.91
2018-09-28T07:12:17.971Z,12.76
2018-09-28T07:14:46.808Z,12.95
2018-09-28T07:17:13.760Z,12.88
2018-09-28T07:19:40.610Z,13.13
2018-09-28T07:22:09.512Z,13.25
2018-09-28T07:24:36.469Z,13.39
2018-09-28T07:27:03.230Z,13.53
2018-09-28T07:29:30.055Z,13.74
2018-09-28T07:31:56.931Z,13.88
2018-09-28T07:34:23.906Z,14.07
2018-09-28T07:36:51.996Z,14.09
2018-09-28T07:39:19.979Z,14.14
2018-09-28T07:41:48.040Z,14.30
2018-09-28T07:44:17.163Z,14.29
2018-09-28T07:46:44.914Z,14.57
2018-09-28T07:49:12.639Z,14.77
2018-09-28T07:51:40.210Z,14.88
2018-09-28T07:54:07.833Z,14.99
2018-09-28T07:56:35.223Z,15.21
2018-09-28T07:59:03.170Z,14.93
2018-09-28T08:01:30.714Z,15.11
2018-09-28T08:03:59.216Z,15.38
2018-09-28T08:06:26.671Z,15.57
2018-09-28T08:08:54.505Z,15.76
2018-09-28T08:11:22.162Z,16.00
2018-09-28T08:13:51.913Z,16.10
2018-09-28T08:16:18.755Z,16.23
2018-09-28T08:18:45.602Z,16.33
2018-09-28T08:21:12.456Z,16.38
2018-09-28T08:23:39.292Z,16.24
2018-09-28T08:26:06.213Z,16.37
2018-09-28T08:28:33.134Z,16.45
2018-09-28T08:31:01.006Z,16.66
2018-09-28T08:33:27.852Z,16.74
2018-09-28T08:35:54.689Z,16.71
2018-09-28T08:38:21.587Z,16.99
2018-09-28T08:40:48.522Z,17.48
2018-09-28T08:43:16.411Z,17.30
2018-09-28T08:45:43.370Z,17.29
2018-09-28T08:48:10.218Z,17.39
2018-09-28T08:50:38.110Z,17.39
2018-09-28T08:53:04.960Z,17.59
2018-09-28T08:55:31.806Z,17.69
2018-09-28T08:57:58.665Z,17.73
2018-09-28T09:00:25.519Z,17.93
2018-09-28T09:02:52.374Z,18.21
2018-09-28T09:05:20.171Z,17.88
2018-09-28T09:07:47.106Z,18.05
2018-09-28T09:10:16.017Z,18.54
2018-09-28T09:12:43.893Z,18.50
2018-09-28T09:15:10.762Z,18.74
2018-09-28T09:17:37.600Z,19.01
2018-09-28T09:20:04.456Z,19.23
2018-09-28T09:22:31.331Z,19.14
2018-09-28T09:24:58.386Z,18.96
2018-09-28T09:27:25.345Z,18.84
2018-09-28T09:29:52.182Z,18.73
2018-09-28T09:32:20.062Z,19.01
2018-09-28T09:34:47.943Z,19.10
2018-09-28T09:37:14.996Z,19.24
2018-09-28T09:39:41.851Z,19.44
2018-09-28T09:42:09.738Z,19.42
2018-09-28T09:44:36.586Z,19.47
2018-09-28T09:47:03.433Z,19.72
2018-09-28T09:49:30.291Z,19.65
2018-09-28T09:51:57.154Z,20.00
2018-09-28T09:54:24.019Z,20.11
2018-09-28T09:56:50.967Z,20.42
2018-09-28T09:59:17.839Z,20.16
2018-09-28T10:01:50.451Z,20.25
2018-09-28T10:04:17.378Z,20.05
2018-09-28T10:06:44.332Z,19.58
2018-09-28T10:09:12.710Z,19.82
2018-09-28T10:11:39.686Z,19.98
2018-09-28T10:14:06.558Z,20.01
2018-09-28T10:16:34.433Z,20.06
2018-09-28T10:19:01.391Z,20.18
2018-09-28T10:21:28.383Z,20.21
2018-09-28T10:23:55.218Z,20.02
2018-09-28T10:26:22.190Z,19.89
2018-09-28T10:28:49.111Z,19.99
2018-09-28T10:31:16.045Z,20.13
2018-09-28T10:33:42.966Z,20.20
2018-09-28T10:36:09.764Z,20.19
2018-09-28T10:38:36.613Z,20.40
2018-09-28T10:41:03.468Z,20.20
2018-09-28T10:43:30.318Z,20.42
2018-09-28T10:45:58.207Z,20.65
2018-09-28T10:48:25.070Z,20.52
2018-09-28T10:50:52.039Z,20.84
2018-09-28T10:53:18.980Z,20.92
2018-09-28T10:55:45.951Z,20.86
2018-09-28T10:58:12.844Z,20.90
2018-09-28T11:00:39.743Z,20.90
2018-09-28T11:03:06.644Z,20.84
2018-09-28T11:05:33.493Z,20.96
2018-09-28T11:08:00.614Z,21.16
2018-09-28T11:10:27.604Z,20.85
2018-09-28T11:12:55.374Z,20.67
2018-09-28T11:15:22.903Z,21.02
2018-09-28T11:17:49.686Z,20.88
2018-09-28T11:20:16.659Z,20.87
2018-09-28T11:22:44.502Z,20.87
2018-09-28T11:25:11.368Z,21.01
2018-09-28T11:27:38.243Z,20.89
2018-09-28T11:30:05.135Z,21.16
2018-09-28T11:32:32.029Z,21.04
2018-09-28T11:34:58.908Z,21.16
2018-09-28T11:37:25.854Z,21.49
2018-09-28T11:39:52.798Z,21.20
2018-09-28T11:42:19.662Z,21.25
2018-09-28T11:44:47.585Z,21.18
2018-09-28T11:47:14.486Z,21.12
2018-09-28T11:49:41.406Z,21.13
2018-09-28T11:52:08.248Z,21.38
2018-09-28T11:54:35.138Z,21.29
2018-09-28T11:57:02.014Z,21.37
2018-09-28T11:59:28.883Z,21.45
2018-09-28T12:01:55.855Z,21.25
2018-09-28T12:04:22.701Z,21.31
2018-09-28T12:06:50.022Z,21.26
2018-09-28T12:09:16.937Z,21.47
2018-09-28T12:11:43.780Z,21.12
2018-09-28T12:14:10.723Z,21.16
2018-09-28T12:16:37.640Z,21.17
2018-09-28T12:19:04.738Z,21.21
2018-09-28T12:21:32.126Z,21.17
2018-09-28T12:23:59.488Z,21.22
2018-09-28T12:26:26.498Z,21.26
2018-09-28T12:32:01.837Z,21.25
2018-09-28T12:34:28.730Z,21.41
2018-09-28T12:36:55.690Z,21.06
2018-09-28T12:39:22.669Z,21.12
2018-09-28T12:41:49.601Z,21.36
2018-09-28T12:44:16.534Z,21.12
2018-09-28T12:46:43.423Z,21.07
2018-09-28T12:49:10.585Z,21.27
2018-09-28T12:51:37.608Z,21.27
2018-09-28T12:54:04.698Z,21.22
2018-09-28T12:56:31.647Z,21.25
2018-09-28T12:59:00.152Z,20.93
2018-09-28T13:01:26.965Z,21.09
2018-09-28T13:03:54.106Z,21.09
2018-09-28T13:06:20.967Z,21.43
2018-09-28T13:08:49.333Z,21.29
2018-09-28T13:11:19.188Z,21.12
2018-09-28T13:13:46.070Z,21.32
2018-09-28T13:16:12.914Z,21.45
2018-09-28T13:18:40.218Z,21.66
2018-09-28T13:21:09.281Z,21.37
2018-09-28T13:23:36.118Z,21.50
2018-09-28T13:26:02.954Z,21.32
2018-09-28T13:28:29.812Z,21.28
2018-09-28T13:30:57.022Z,21.39
2018-09-28T13:33:27.982Z,21.06
2018-09-28T13:35:54.833Z,20.94
2018-09-28T13:38:21.914Z,21.11
2018-09-28T13:40:49.770Z,21.27
2018-09-28T13:43:16.687Z,21.14
2018-09-28T13:45:43.546Z,20.95
2018-09-28T13:48:10.398Z,20.90
2018-09-28T13:50:37.284Z,21.15
2018-09-28T13:53:04.206Z,20.95
2018-09-28T13:55:31.062Z,21.04
2018-09-28T13:57:57.908Z,20.99
2018-09-28T14:00:24.937Z,20.96
2018-09-28T14:02:53.060Z,21.13
2018-09-28T14:05:21.441Z,21.43
2018-09-28T14:07:48.314Z,21.28
2018-09-28T14:10:15.169Z,21.47
2018-09-28T14:12:42.065Z,21.38
2018-09-28T14:15:08.983Z,21.41
2018-09-28T14:17:36.009Z,21.44
2018-09-28T14:20:02.947Z,21.29
2018-09-28T14:22:29.873Z,21.37
2018-09-28T14:24:56.723Z,21.41
2018-09-28T14:27:23.706Z,21.56
2018-09-28T14:29:50.545Z,21.40
2018-09-28T14:32:17.553Z,21.15
2018-09-28T14:34:45.402Z,21.14
2018-09-28T14:37:12.299Z,20.98
2018-09-28T14:39:39.912Z,20.98
2018-09-28T14:42:07.487Z,21.07
2018-09-28T14:44:36.093Z,20.96
2018-09-28T14:47:04.714Z,20.77
2018-09-28T14:49:32.138Z,20.85
2018-09-28T14:51:58.988Z,20.79
2018-09-28T14:54:25.982Z,20.83
2018-09-28T14:56:52.962Z,20.83
2018-09-28T14:59:19.847Z,20.98
2018-09-28T15:01:46.758Z,20.90
2018-09-28T15:04:13.873Z,20.77
2018-09-28T15:06:41.056Z,20.69
2018-09-28T15:09:09.086Z,20.68
2018-09-28T15:11:36.255Z,20.78
2018-09-28T15:14:03.606Z,20.79
2018-09-28T15:16:31.044Z,20.63
2018-09-28T15:18:57.954Z,20.64
2018-09-28T15:21:24.858Z,20.70
2018-09-28T15:23:51.721Z,20.64
2018-09-28T15:26:18.642Z,20.52
2018-09-28T15:28:46.862Z,20.45
2018-09-28T15:31:15.756Z,20.24
2018-09-28T15:33:42.678Z,20.16
2018-09-28T15:36:09.578Z,20.09
2018-09-28T15:38:37.527Z,19.89
2018-09-28T15:41:04.515Z,19.79
2018-09-28T15:43:31.498Z,19.74
2018-09-28T15:45:58.405Z,19.67
2018-09-28T15:48:25.382Z,19.72
2018-09-28T15:51:00.447Z,19.69
2018-09-28T15:53:28.849Z,19.61
2018-09-28T15:55:55.879Z,19.63
2018-09-28T15:58:22.919Z,19.60
2018-09-28T16:00:49.851Z,19.48
2018-09-28T16:03:16.757Z,19.39
2018-09-28T16:05:46.134Z,19.19
2018-09-28T16:08:16.270Z,19.09
2018-09-28T16:10:44.143Z,18.99
2018-09-28T16:13:12.694Z,18.89
2018-09-28T16:15:42.058Z,18.67
2018-09-28T16:18:08.913Z,18.43
2018-09-28T16:20:35.878Z,18.04
2018-09-28T16:23:02.838Z,17.93
2018-09-28T16:25:29.762Z,17.85
2018-09-28T16:27:56.606Z,17.69
2018-09-28T16:30:25.563Z,17.41
2018-09-28T16:32:52.646Z,17.21
2018-09-28T16:35:19.536Z,16.97
2018-09-28T16:37:47.422Z,16.84
2018-09-28T16:40:14.286Z,16.60
2018-09-28T16:42:42.103Z,16.32
2018-09-28T16:45:09.411Z,16.15
2018-09-28T16:47:37.042Z,15.84
2018-09-28T16:50:04.695Z,15.74
2018-09-28T16:52:32.592Z,15.70
2018-09-28T16:54:59.500Z,15.65
2018-09-28T16:57:26.370Z,15.39
2018-09-28T16:59:53.334Z,15.25
2018-09-28T17:02:20.265Z,15.19
2018-09-28T17:04:47.156Z,15.17
2018-09-28T17:07:14.133Z,15.17
2018-09-28T17:09:40.978Z,15.10
2018-09-28T17:12:07.882Z,15.09
2018-09-28T17:14:34.773Z,15.08
2018-09-28T17:17:01.790Z,14.98
2018-09-28T17:19:28.623Z,14.91
2018-09-28T17:21:56.531Z,14.78
2018-09-28T17:24:23.425Z,14.67
2018-09-28T17:26:50.362Z,14.66
2018-09-28T17:29:17.314Z,14.62
2018-09-28T17:31:44.157Z,14.56
2018-09-28T17:34:11.059Z,14.49
2018-09-28T17:36:37.982Z,14.48
2018-09-28T17:39:07.865Z,14.42
2018-09-28T17:41:36.002Z,14.42
2018-09-28T17:44:02.930Z,14.36
2018-09-28T17:46:29.870Z,14.10
2018-09-28T17:48:56.792Z,13.99
2018-09-28T17:51:23.744Z,13.87
2018-09-28T17:53:50.718Z,13.72
2018-09-28T17:56:17.542Z,13.65
2018-09-28T17:58:46.387Z,13.62
2018-09-28T18:01:15.090Z,13.59
2018-09-28T18:03:43.042Z,13.56
2018-09-28T18:06:09.926Z,13.46
2018-09-28T18:08:36.832Z,13.45
2018-09-28T18:11:03.726Z,13.41
2018-09-28T18:13:30.654Z,13.41
2018-09-28T18:15:58.843Z,13.40
2018-09-28T18:18:25.962Z,13.44
2018-09-28T18:20:53.052Z,13.41
2018-09-28T18:23:20.578Z,13.43
2018-09-28T18:25:48.510Z,13.45
2018-09-28T18:28:15.469Z,13.52
2018-09-28T18:30:42.406Z,13.50
2018-09-28T18:33:09.274Z,13.54
2018-09-28T18:35:36.210Z,13.57
2018-09-28T18:38:03.065Z,13.52
2018-09-28T18:40:29.958Z,13.58
2018-09-28T18:42:56.974Z,13.63
2018-09-28T18:45:25.312Z,13.65
2018-09-28T18:47:52.378Z,13.65
2018-09-28T18:50:19.410Z,13.64
2018-09-28T18:52:46.251Z,13.65
2018-09-28T18:55:13.126Z,13.64
2018-09-28T18:57:40.062Z,13.71
2018-09-28T19:00:06.929Z,13.79
2018-09-28T19:02:34.097Z,13.80
2018-09-28T19:05:01.079Z,13.88
2018-09-28T19:07:29.190Z,13.89
2018-09-28T19:09:56.078Z,13.84
2018-09-28T19:12:23.526Z,13.94
2018-09-28T19:14:50.394Z,13.89
2018-09-28T19:17:17.279Z,13.91
2018-09-28T19:19:45.293Z,13.89
2018-09-28T19:22:12.459Z,13.95
2018-09-28T19:24:39.974Z,13.87
2018-09-28T19:27:07.070Z,13.85
2018-09-28T19:29:35.019Z,13.90
2018-09-28T19:32:09.458Z,13.92
2018-09-28T19:34:36.303Z,13.92
2018-09-28T19:37:03.181Z,13.95
2018-09-28T19:39:30.126Z,13.98
2018-09-28T19:41:57.082Z,14.02
2018-09-28T19:44:24.036Z,14.00
2018-09-28T19:46:50.874Z,13.99
2018-09-28T19:49:17.839Z,14.03
2018-09-28T19:51:46.036Z,13.96
2018-09-28T19:54:17.410Z,14.02
2018-09-28T19:56:44.391Z,14.00
2018-09-28T19:59:11.310Z,14.03
2018-09-28T20:01:38.930Z,14.01
2018-09-28T20:04:08.172Z,13.97
2018-09-28T20:06:35.246Z,14.02
2018-09-28T20:09:02.122Z,13.98
2018-09-28T20:11:29.072Z,13.98
2018-09-28T20:13:55.930Z,14.00
2018-09-28T20:16:22.864Z,13.92
2018-09-28T20:18:49.722Z,13.92
2018-09-28T20:21:16.588Z,13.96
2018-09-28T20:23:43.454Z,13.92
2018-09-28T20:26:10.418Z,13.88
2018-09-28T20:28:37.482Z,13.93
2018-09-28T20:31:05.010Z,13.89
2018-09-28T20:33:31.885Z,13.90
2018-09-28T20:35:58.750Z,13.86
2018-09-28T20:38:25.708Z,13.91
2018-09-28T20:40:52.717Z,13.90
2018-09-28T20:43:19.755Z,13.89
2018-09-28T20:45:47.689Z,13.86
2018-09-28T20:48:15.588Z,13.87
2018-09-28T20:50:42.646Z,13.87
2018-09-28T20:53:10.839Z,13.85
2018-09-28T20:55:37.789Z,13.85
2018-09-28T20:58:04.954Z,13.78
2018-09-28T21:00:31.839Z,13.84
2018-09-28T21:02:58.770Z,13.85
2018-09-28T21:05:25.774Z,13.79
2018-09-28T21:07:52.754Z,13.84
2018-09-28T21:10:20.667Z,13.92
2018-09-28T21:12:47.587Z,13.91
2018-09-28T21:15:14.462Z,13.83
2018-09-28T21:17:41.307Z,13.80
2018-09-28T21:20:08.173Z,13.86
2018-09-28T21:22:35.023Z,13.84
2018-09-28T21:25:01.923Z,13.78
2018-09-28T21:27:28.862Z,13.83
2018-09-28T21:29:55.782Z,13.84
2018-09-28T21:32:22.646Z,13.82
2018-09-28T21:34:49.547Z,13.85
2018-09-28T21:37:17.478Z,13.84
2018-09-28T21:39:44.367Z,13.76
2018-09-28T21:42:11.420Z,13.81
2018-09-28T21:44:38.294Z,13.78
2018-09-28T21:47:05.210Z,13.80
2018-09-28T21:49:32.074Z,13.81
2018-09-28T21:51:58.918Z,13.79
2018-09-28T21:54:25.749Z,13.75
2018-09-28T21:56:52.670Z,13.73
2018-09-28T21:59:19.618Z,13.71
2018-09-28T22:01:46.573Z,13.69
2018-09-28T22:04:13.419Z,13.70
2018-09-28T22:06:40.391Z,13.67
2018-09-28T22:09:07.346Z,13.66
2018-09-28T22:11:34.274Z,13.63
2018-09-28T22:14:01.144Z,13.56
2018-09-28T22:16:27.987Z,13.54
2018-09-28T22:18:54.869Z,13.51
2018-09-28T22:21:21.851Z,13.52
2018-09-28T22:23:48.670Z,13.39
2018-09-28T22:26:15.512Z,13.29
2018-09-28T22:28:42.366Z,13.26
2018-09-28T22:31:10.295Z,13.15
2018-09-28T22:33:37.214Z,13.10
2018-09-28T22:36:04.049Z,13.12
2018-09-28T22:38:30.909Z,13.06
2018-09-28T22:40:57.805Z,13.11
2018-09-28T22:43:24.722Z,13.13
2018-09-28T22:45:51.570Z,13.21
2018-09-28T22:48:18.433Z,13.22
2018-09-28T22:50:45.390Z,13.20
2018-09-28T22:53:12.442Z,13.15
2018-09-28T22:55:39.477Z,13.22
2018-09-28T22:58:07.382Z,13.12
2018-09-28T23:00:34.254Z,13.28
2018-09-28T23:03:01.197Z,13.13
2018-09-28T23:05:28.071Z,13.11
2018-09-28T23:07:55.006Z,13.02
2018-09-28T23:10:22.890Z,12.99
2018-09-28T23:12:49.767Z,12.93
2018-09-28T23:15:16.708Z,12.85
2018-09-28T23:17:43.526Z,12.85
2018-09-28T23:20:10.414Z,12.77
2018-09-28T23:22:37.266Z,12.78
2018-09-28T23:25:04.186Z,12.76
2018-09-28T23:27:31.020Z,12.74
2018-09-28T23:29:57.922Z,12.71
2018-09-28T23:32:25.606Z,12.67
2018-09-28T23:34:53.489Z,12.62
2018-09-28T23:37:20.550Z,12.61
2018-09-28T23:39:47.494Z,12.55
2018-09-28T23:42:14.385Z,12.41
2018-09-28T23:44:42.253Z,12.40
2018-09-28T23:47:09.189Z,12.36
2018-09-28T23:49:36.019Z,12.27
2018-09-28T23:52:02.909Z,12.24
2018-09-28T23:54:29.762Z,12.14
2018-09-28T23:56:56.610Z,12.13
2018-09-28T23:59:23.487Z,12.00
